Time;durP1;ratioP1;P1;durP2;ratioP2;P2;SDS_P1;SDS_P2;PMS_P1;PMS_P2;Temp;Humidity;BMP_temperature;BMP_pressure;BME280_temperature;BME280_humidity;BME280_pressure;Samples;Min_cycle;Max_cycle;Signal;HPM_P1;HPM_P2
2023/05/19 00:01:42;;;;;;;8.50;2.55;;;5.90;99.90;;;;;;5085599;28;21104;-70
2023/05/19 00:04:11;;;;;;;10.10;2.80;;;5.80;99.90;;;;;;5087495;28;20477;-70
2023/05/19 00:06:37;;;;;;;10.05;2.75;;;5.80;99.90;;;;;;5087080;28;20047;-70
2023/05/19 00:09:06;;;;;;;19.02;3.08;;;5.80;99.90;;;;;;5087828;28;20036;-70
2023/05/19 00:11:36;;;;;;;10.18;2.20;;;5.70;99.90;;;;;;5086686;28;20478;-68
2023/05/19 00:14:05;;;;;;;9.98;2.53;;;5.70;99.90;;;;;;5085715;28;20044;-71
2023/05/19 00:16:30;;;;;;;9.10;2.40;;;5.70;99.90;;;;;;5107740;27;20127;-70
2023/05/19 00:18:58;;;;;;;10.07;2.83;;;5.70;99.90;;;;;;5077736;28;20131;-70
2023/05/19 00:21:25;;;;;;;7.28;2.58;;;5.70;99.90;;;;;;5073882;28;20051;-70
2023/05/19 00:23:51;;;;;;;14.13;2.40;;;5.60;99.90;;;;;;5073979;28;20385;-69
2023/05/19 00:26:17;;;;;;;11.20;3.00;;;5.70;99.90;;;;;;5074511;28;20047;-70
2023/05/19 00:28:42;;;;;;;7.35;2.70;;;5.50;99.90;;;;;;5077441;28;20521;-69
2023/05/19 00:31:08;;;;;;;15.63;2.97;;;5.50;99.90;;;;;;5069693;28;20048;-70
2023/05/19 00:33:34;;;;;;;8.05;2.35;;;5.50;99.90;;;;;;5067076;28;20045;-68
2023/05/19 00:36:02;;;;;;;9.10;2.70;;;5.40;99.90;;;;;;5067711;28;20052;-69
2023/05/19 00:38:29;;;;;;;9.98;2.72;;;5.50;99.90;;;;;;5066381;28;20106;-69
2023/05/19 00:40:55;;;;;;;8.45;2.80;;;5.50;99.90;;;;;;5064597;28;20052;-71
2023/05/19 00:43:21;;;;;;;11.32;2.33;;;5.50;99.90;;;;;;5066265;28;20041;-71
2023/05/19 00:45:47;;;;;;;10.52;2.70;;;5.40;99.90;;;;;;5064529;28;20048;-70
2023/05/19 00:48:12;;;;;;;5.05;2.35;;;5.40;99.90;;;;;;5065292;28;20043;-69
2023/05/19 00:50:39;;;;;;;6.20;2.35;;;5.40;99.90;;;;;;5064594;28;20044;-70
2023/05/19 00:53:05;;;;;;;7.20;2.70;;;5.40;99.90;;;;;;5074997;28;20048;-70
2023/05/19 00:55:32;;;;;;;9.25;3.40;;;5.30;99.90;;;;;;5065076;28;20048;-70
2023/05/19 00:57:58;;;;;;;4.63;2.30;;;5.30;99.90;;;;;;5066170;28;20044;-69
2023/05/19 01:00:24;;;;;;;12.35;2.97;;;5.30;99.90;;;;;;5064635;28;20048;-70
2023/05/19 01:02:50;;;;;;;10.07;2.70;;;5.30;99.90;;;;;;5057762;28;20416;-70
2023/05/19 01:05:16;;;;;;;8.95;2.65;;;5.20;99.90;;;;;;5057375;28;20036;-71
2023/05/19 01:07:42;;;;;;;6.07;2.88;;;5.20;99.90;;;;;;5058295;28;20040;-70
2023/05/19 01:10:08;;;;;;;16.50;3.33;;;5.10;99.90;;;;;;5057865;28;20044;-70
2023/05/19 01:12:35;;;;;;;12.73;2.83;;;5.00;99.90;;;;;;5056240;28;20053;-70
2023/05/19 01:15:02;;;;;;;11.73;2.60;;;5.00;99.90;;;;;;5073286;28;20083;-69
2023/05/19 01:17:33;;;;;;;9.20;2.80;;;5.00;99.90;;;;;;5058177;28;20139;-70
2023/05/19 01:20:17;;;;;;;15.40;2.95;;;5.00;99.90;;;;;;5058293;28;20548;-69
2023/05/19 01:22:42;;;;;;;14.73;2.60;;;4.90;99.90;;;;;;5089741;28;20048;-70
2023/05/19 01:25:18;;;;;;;13.23;3.60;;;4.90;99.90;;;;;;5057575;28;21372;-69
2023/05/19 01:28:12;;;;;;;6.50;2.53;;;4.90;99.90;;;;;;5057121;28;20049;-70
2023/05/19 01:30:45;;;;;;;7.22;2.50;;;4.80;99.90;;;;;;5054959;28;20147;-69
2023/05/19 01:33:15;;;;;;;13.60;3.08;;;4.80;99.90;;;;;;5056807;28;20058;-69
2023/05/19 01:35:42;;;;;;;3.72;2.35;;;4.80;99.90;;;;;;5055682;28;20048;-69
2023/05/19 01:38:10;;;;;;;11.75;2.70;;;4.90;99.90;;;;;;5057648;28;20044;-69
2023/05/19 01:40:38;;;;;;;11.73;2.90;;;4.80;99.90;;;;;;5057354;28;20044;-69
2023/05/19 01:43:05;;;;;;;4.85;2.33;;;4.90;99.90;;;;;;5057735;28;20040;-69
2023/05/19 01:45:32;;;;;;;9.68;2.85;;;4.90;99.90;;;;;;5089836;28;20151;-68
2023/05/19 01:48:01;;;;;;;8.93;2.80;;;4.90;99.90;;;;;;5056778;28;20051;-68
2023/05/19 01:50:27;;;;;;;10.57;2.38;;;4.80;99.90;;;;;;5056024;28;20684;-68
2023/05/19 01:52:54;;;;;;;9.07;2.63;;;4.80;99.90;;;;;;5057578;28;20033;-68
2023/05/19 01:55:22;;;;;;;8.00;2.95;;;4.80;99.90;;;;;;5089629;28;20036;-68
2023/05/19 01:58:01;;;;;;;8.57;2.10;;;4.80;99.90;;;;;;5057411;28;20154;-68
2023/05/19 02:00:50;;;;;;;7.00;2.72;;;4.80;99.90;;;;;;5056794;28;20044;-68
2023/05/19 02:03:52;;;;;;;4.75;2.20;;;4.90;99.90;;;;;;5071045;28;20444;-68
2023/05/19 02:06:24;;;;;;;5.93;2.40;;;4.80;99.90;;;;;;5081213;28;20052;-69
2023/05/19 02:08:57;;;;;;;7.70;2.97;;;4.80;99.90;;;;;;5072013;28;20053;-69
2023/05/19 02:11:40;;;;;;;4.75;2.42;;;4.70;99.90;;;;;;5070774;28;20040;-69
2023/05/19 02:14:19;;;;;;;6.57;2.53;;;4.60;99.90;;;;;;5087596;28;20076;-69
2023/05/19 02:16:47;;;;;;;8.82;3.08;;;4.60;99.90;;;;;;5074705;28;20048;-68
2023/05/19 02:19:24;;;;;;;12.20;2.60;;;4.70;99.90;;;;;;5087010;28;20054;-68
2023/05/19 02:21:49;;;;;;;8.75;2.78;;;4.70;99.90;;;;;;5070324;28;20040;-68
2023/05/19 02:24:15;;;;;;;10.75;3.10;;;4.60;99.90;;;;;;5070338;28;20044;-68
2023/05/19 02:26:41;;;;;;;7.93;2.80;;;4.60;99.90;;;;;;5071307;28;20605;-68
2023/05/19 02:29:07;;;;;;;6.47;2.60;;;4.60;99.90;;;;;;5071371;28;20074;-68
2023/05/19 02:31:32;;;;;;;;;;;4.60;99.90;;;;;;5070615;28;21048;-68
2023/05/19 02:33:58;;;;;;;8.63;2.60;;;4.60;99.90;;;;;;5071230;28;20003;-68
2023/05/19 02:36:25;;;;;;;7.40;2.25;;;4.60;99.90;;;;;;5070018;28;20049;-68
2023/05/19 02:38:51;;;;;;;7.47;2.53;;;4.50;99.90;;;;;;5070892;28;20085;-68
2023/05/19 02:41:16;;;;;;;6.13;2.70;;;4.50;99.90;;;;;;5067249;28;20075;-67
2023/05/19 02:43:42;;;;;;;9.23;2.97;;;4.40;99.90;;;;;;5069347;28;20140;-68
2023/05/19 02:46:08;;;;;;;9.68;2.70;;;4.40;99.90;;;;;;5070333;28;20048;-68
2023/05/19 02:48:33;;;;;;;;;;;4.40;99.90;;;;;;5070248;28;20688;-68
2023/05/19 02:50:59;;;;;;;10.77;2.92;;;4.40;99.90;;;;;;5071025;28;19931;-68
2023/05/19 02:53:24;;;;;;;5.63;2.30;;;4.40;99.90;;;;;;5070778;28;20133;-68
2023/05/19 02:55:50;;;;;;;7.15;2.42;;;4.40;99.90;;;;;;5071370;28;20047;-68
2023/05/19 02:58:15;;;;;;;8.48;2.75;;;4.40;99.90;;;;;;5071553;28;20071;-68
2023/05/19 03:00:43;;;;;;;5.32;2.65;;;4.30;99.90;;;;;;5072308;28;20058;-68
2023/05/19 03:03:09;;;;;;;6.53;2.33;;;4.30;99.90;;;;;;5070808;28;20442;-68
2023/05/19 03:05:35;;;;;;;6.65;2.47;;;4.30;99.90;;;;;;5069874;28;20382;-68
2023/05/19 03:08:00;;;;;;;7.10;2.42;;;4.30;99.90;;;;;;5071041;28;20040;-67
2023/05/19 03:10:26;;;;;;;;;;;4.20;99.90;;;;;;5070699;28;20127;-68
2023/05/19 03:12:52;;;;;;;11.00;3.08;;;4.20;99.90;;;;;;5070640;28;20027;-68
2023/05/19 03:15:18;;;;;;;8.70;2.63;;;4.20;99.90;;;;;;5070374;28;20032;-68
2023/05/19 03:17:43;;;;;;;7.53;2.60;;;4.20;99.90;;;;;;5070900;28;20040;-68
2023/05/19 03:20:09;;;;;;;8.70;2.45;;;4.20;99.90;;;;;;5071416;28;20463;-68
2023/05/19 03:22:35;;;;;;;10.80;2.55;;;4.30;99.90;;;;;;5069057;28;21344;-68
2023/05/19 03:25:02;;;;;;;6.95;2.50;;;4.30;99.90;;;;;;5073878;28;20071;-68
2023/05/19 03:27:28;;;;;;;6.15;2.83;;;4.30;99.90;;;;;;5072063;28;20053;-70
2023/05/19 03:29:54;;;;;;;10.38;2.70;;;4.20;99.90;;;;;;5071864;28;20044;-70
2023/05/19 03:32:19;;;;;;;8.35;2.65;;;4.30;99.90;;;;;;5073081;28;20059;-70
2023/05/19 03:34:45;;;;;;;9.98;2.70;;;4.30;99.90;;;;;;5072176;28;20040;-69
2023/05/19 03:37:11;;;;;;;7.95;2.85;;;4.20;99.90;;;;;;5073570;28;20036;-67
2023/05/19 03:39:37;;;;;;;6.22;2.35;;;4.20;99.90;;;;;;5090446;28;20518;-68
2023/05/19 03:42:03;;;;;;;12.05;3.00;;;4.30;99.90;;;;;;5072989;28;20045;-71
2023/05/19 03:44:29;;;;;;;7.70;2.33;;;4.30;99.90;;;;;;5087527;28;20040;-69
2023/05/19 03:46:54;;;;;;;;;;;4.30;99.90;;;;;;5072844;28;20052;-68
2023/05/19 03:49:20;;;;;;;5.82;2.30;;;4.30;99.90;;;;;;5071140;28;19920;-68
2023/05/19 03:51:45;;;;;;;12.77;2.75;;;4.30;99.90;;;;;;5069045;28;20036;-70
2023/05/19 03:54:11;;;;;;;;;;;4.30;99.90;;;;;;5074707;28;20043;-70
2023/05/19 03:56:38;;;;;;;9.68;2.35;;;4.40;99.90;;;;;;5076896;28;19924;-70
2023/05/19 03:59:07;;;;;;;7.65;2.40;;;4.50;99.90;;;;;;5074161;28;20062;-70
2023/05/19 04:01:33;;;;;;;10.77;2.72;;;4.60;99.90;;;;;;5072765;28;20120;-70
2023/05/19 04:03:58;;;;;;;6.18;2.22;;;4.60;99.90;;;;;;5074039;28;20727;-68
2023/05/19 04:06:24;;;;;;;12.40;2.65;;;4.60;99.90;;;;;;5072951;28;20385;-68
2023/05/19 04:08:49;;;;;;;6.07;2.90;;;4.70;99.90;;;;;;5073650;28;20741;-68
2023/05/19 04:11:15;;;;;;;;;;;4.80;99.90;;;;;;5073765;28;20024;-68
2023/05/19 04:13:40;;;;;;;6.28;2.10;;;4.90;99.90;;;;;;5073866;28;19931;-68
2023/05/19 04:16:06;;;;;;;19.92;3.35;;;5.10;99.90;;;;;;5073199;28;20042;-68
2023/05/19 04:18:32;;;;;;;8.55;2.10;;;5.60;99.90;;;;;;5074497;28;20052;-68
2023/05/19 04:20:57;;;;;;;6.85;2.15;;;6.30;99.90;;;;;;5073380;28;20239;-68
2023/05/19 04:23:23;;;;;;;5.95;2.42;;;6.80;99.90;;;;;;5074004;28;20045;-70
2023/05/19 04:25:49;;;;;;;;;;;6.90;99.90;;;;;;5073797;28;20062;-70
2023/05/19 04:28:14;;;;;;;6.50;2.17;;;7.20;99.90;;;;;;5074672;28;19924;-67
2023/05/19 04:30:41;;;;;;;7.35;2.25;;;7.30;99.90;;;;;;5072342;28;20055;-68
2023/05/19 04:33:08;;;;;;;8.57;2.10;;;7.10;99.90;;;;;;5075901;28;20040;-68
2023/05/19 04:35:34;;;;;;;11.60;2.58;;;6.90;99.90;;;;;;5074670;28;20076;-67
2023/05/19 04:38:00;;;;;;;;;;;6.70;99.90;;;;;;5074507;28;20110;-67
2023/05/19 04:40:26;;;;;;;6.35;2.00;;;6.70;99.90;;;;;;5072287;28;19984;-67
2023/05/19 04:42:52;;;;;;;11.18;2.60;;;6.50;99.90;;;;;;5070790;28;20044;-66
2023/05/19 04:45:18;;;;;;;7.93;2.10;;;6.50;99.90;;;;;;5073578;28;20048;-69
2023/05/19 04:47:46;;;;;;;;;;;6.70;99.90;;;;;;5075143;28;20553;-68
2023/05/19 04:50:13;;;;;;;5.95;1.92;;;6.80;99.90;;;;;;5073201;28;20476;-68
2023/05/19 04:52:40;;;;;;;5.93;2.22;;;7.00;99.90;;;;;;5072355;28;20048;-68
2023/05/19 04:55:06;;;;;;;6.63;2.28;;;7.10;99.90;;;;;;5074062;28;20101;-68
2023/05/19 04:57:32;;;;;;;6.22;2.03;;;7.00;99.90;;;;;;5072452;28;20048;-67
2023/05/19 04:59:58;;;;;;;;;;;7.20;99.90;;;;;;5073989;28;20071;-68
2023/05/19 05:02:27;;;;;;;6.57;2.50;;;7.70;99.90;;;;;;5071434;28;19924;-67
2023/05/19 05:04:53;;;;;;;7.78;2.20;;;9.20;99.90;;;;;;5072624;28;20041;-67
2023/05/19 05:07:20;;;;;;;;;;;10.50;99.90;;;;;;5072680;28;20109;-67
2023/05/19 05:09:47;;;;;;;6.97;2.45;;;11.50;99.90;;;;;;5076684;28;20395;-70
2023/05/19 05:12:13;;;;;;;7.03;2.33;;;12.60;97.90;;;;;;5072599;28;20119;-69
2023/05/19 05:14:39;;;;;;;9.93;2.20;;;13.40;96.10;;;;;;5072649;28;20089;-69
2023/05/19 05:17:06;;;;;;;4.68;1.70;;;13.70;96.40;;;;;;5073963;28;20478;-69
2023/05/19 05:19:32;;;;;;;8.27;2.58;;;14.40;93.30;;;;;;5072191;28;20802;-68
2023/05/19 05:21:59;;;;;;;5.00;1.85;;;15.40;92.20;;;;;;5072289;28;20044;-66
2023/05/19 05:24:26;;;;;;;4.97;1.92;;;15.30;90.80;;;;;;5072756;28;20140;-67
2023/05/19 05:26:52;;;;;;;7.70;1.73;;;15.00;92.30;;;;;;5072103;28;20048;-67
2023/05/19 05:29:18;;;;;;;;;;;14.90;93.30;;;;;;5073918;28;20841;-69
2023/05/19 05:31:44;;;;;;;9.82;2.17;;;14.80;92.20;;;;;;5070227;28;20636;-68
2023/05/19 05:34:09;;;;;;;;;;;15.50;92.10;;;;;;5072947;28;20451;-67
2023/05/19 05:36:35;;;;;;;7.40;2.33;;;16.40;89.20;;;;;;5072853;28;20046;-68
2023/05/19 05:39:01;;;;;;;;;;;16.10;88.90;;;;;;5072642;28;20182;-70
2023/05/19 05:41:33;;;;;;;5.35;2.13;;;15.70;90.10;;;;;;5071572;28;19924;-68
2023/05/19 05:44:02;;;;;;;3.45;1.80;;;15.70;92.20;;;;;;5070686;28;20040;-70
2023/05/19 05:46:28;;;;;;;11.57;2.70;;;16.00;91.10;;;;;;5070905;28;21355;-67
2023/05/19 05:48:54;;;;;;;;;;;15.60;92.00;;;;;;5072743;28;20040;-69
2023/05/19 05:51:23;;;;;;;9.63;2.40;;;15.60;90.70;;;;;;5071415;28;19924;-67
2023/05/19 05:53:53;;;;;;;7.30;1.92;;;16.80;87.90;;;;;;5072975;28;20155;-69
2023/05/19 05:56:20;;;;;;;6.18;1.77;;;16.40;85.40;;;;;;5072465;28;20772;-66
2023/05/19 05:58:46;;;;;;;7.43;1.95;;;16.40;87.30;;;;;;5070277;28;20048;-67
2023/05/19 06:01:12;;;;;;;9.90;2.72;;;17.00;85.50;;;;;;5072346;28;20032;-66
2023/05/19 06:03:40;;;;;;;6.88;2.35;;;17.60;82.80;;;;;;5071403;28;20044;-65
2023/05/19 06:06:06;;;;;;;6.82;1.75;;;18.50;80.10;;;;;;5071816;28;20040;-66
2023/05/19 06:08:32;;;;;;;8.77;1.88;;;18.40;79.00;;;;;;5091440;28;20047;-67
2023/05/19 06:10:57;;;;;;;8.82;2.45;;;19.50;77.60;;;;;;5070646;28;20538;-67
2023/05/19 06:13:24;;;;;;;5.53;1.63;;;20.20;76.50;;;;;;5070730;28;20050;-67
2023/05/19 06:15:50;;;;;;;7.55;1.77;;;20.40;72.30;;;;;;5071159;28;20049;-67
2023/05/19 06:18:19;;;;;;;6.20;1.73;;;19.40;75.80;;;;;;5069745;28;20044;-67
2023/05/19 06:20:44;;;;;;;7.20;1.98;;;18.70;76.60;;;;;;5071367;28;20047;-67
2023/05/19 06:23:10;;;;;;;9.77;1.80;;;17.90;77.00;;;;;;5071121;28;20075;-65
2023/05/19 06:25:37;;;;;;;8.15;2.72;;;17.40;80.30;;;;;;5071544;28;20105;-67
2023/05/19 06:28:02;;;;;;;7.78;2.03;;;18.10;79.50;;;;;;5071923;28;20044;-66
2023/05/19 06:30:28;;;;;;;9.98;2.60;;;17.70;79.00;;;;;;5069170;28;20043;-67
2023/05/19 06:32:54;;;;;;;5.80;1.85;;;17.20;82.40;;;;;;5070652;28;20174;-66
2023/05/19 06:35:19;;;;;;;9.38;2.47;;;17.20;82.70;;;;;;5071528;28;20051;-68
2023/05/19 06:37:45;;;;;;;6.13;2.10;;;17.10;82.60;;;;;;5070685;28;20154;-67
2023/05/19 06:40:11;;;;;;;6.60;1.95;;;17.10;83.80;;;;;;5077684;28;20048;-65
2023/05/19 06:42:37;;;;;;;6.55;2.03;;;16.90;81.20;;;;;;5070829;28;20543;-65
2023/05/19 06:45:03;;;;;;;6.70;1.90;;;16.80;83.50;;;;;;5073155;28;20040;-67
2023/05/19 06:47:29;;;;;;;7.43;2.03;;;15.80;81.10;;;;;;5070668;28;20458;-65
2023/05/19 06:49:55;;;;;;;8.27;2.13;;;16.00;86.00;;;;;;5069206;28;20045;-66
2023/05/19 06:52:22;;;;;;;7.75;2.17;;;16.50;84.10;;;;;;5068493;28;20155;-66
2023/05/19 06:54:49;;;;;;;11.90;2.28;;;16.60;81.90;;;;;;5069728;28;20047;-66
2023/05/19 06:57:15;;;;;;;9.55;2.10;;;17.30;80.70;;;;;;5070703;28;20036;-67
2023/05/19 06:59:42;;;;;;;6.50;1.58;;;17.90;78.20;;;;;;5069103;28;20075;-67
2023/05/19 07:02:08;;;;;;;4.47;1.67;;;18.00;80.50;;;;;;5061654;28;20162;-67
2023/05/19 07:04:35;;;;;;;6.47;1.55;;;19.70;76.90;;;;;;5071419;28;20770;-66
2023/05/19 07:07:00;;;;;;;6.95;2.05;;;20.90;68.70;;;;;;5070968;28;20584;-68
2023/05/19 07:09:26;;;;;;;6.07;1.50;;;20.50;71.30;;;;;;5071802;28;20052;-67
2023/05/19 07:11:52;;;;;;;5.65;1.50;;;20.60;71.90;;;;;;5069720;28;20076;-67
2023/05/19 07:14:19;;;;;;;10.15;1.88;;;20.30;72.20;;;;;;5070817;28;20078;-65
2023/05/19 07:16:45;;;;;;;13.95;2.10;;;19.90;73.00;;;;;;5069754;28;20082;-65
2023/05/19 07:19:10;;;;;;;11.07;1.98;;;19.30;73.60;;;;;;5069607;28;20139;-65
2023/05/19 07:21:36;;;;;;;4.18;1.60;;;19.70;72.90;;;;;;5070071;28;20047;-65
2023/05/19 07:24:02;;;;;;;6.78;1.73;;;20.30;72.20;;;;;;5070607;28;20113;-65
2023/05/19 07:26:28;;;;;;;5.35;1.75;;;20.10;71.30;;;;;;5070504;28;20044;-66
2023/05/19 07:28:53;;;;;;;4.60;1.30;;;20.20;71.00;;;;;;5073756;28;20727;-66
2023/05/19 07:31:19;;;;;;;7.82;1.92;;;21.10;69.50;;;;;;5073182;28;20040;-67
2023/05/19 07:33:45;;;;;;;4.35;1.60;;;21.60;64.20;;;;;;5074955;28;20044;-65
2023/05/19 07:36:10;;;;;;;6.15;1.38;;;21.50;65.60;;;;;;5074653;28;20028;-66
2023/05/19 07:38:36;;;;;;;4.07;1.50;;;21.80;66.20;;;;;;5073335;28;20428;-67
2023/05/19 07:41:02;;;;;;;5.03;1.85;;;21.60;63.30;;;;;;5072622;28;20040;-66
2023/05/19 07:43:28;;;;;;;4.95;1.75;;;21.30;64.60;;;;;;5073940;28;20032;-67
2023/05/19 07:45:55;;;;;;;5.93;1.48;;;22.00;62.10;;;;;;5073579;28;20055;-65
2023/05/19 07:48:21;;;;;;;7.85;1.60;;;21.70;61.00;;;;;;5074374;28;20553;-66
2023/05/19 07:50:48;;;;;;;6.80;1.50;;;21.70;59.70;;;;;;5074531;28;20040;-65
2023/05/19 07:53:14;;;;;;;4.80;1.52;;;22.70;60.60;;;;;;5074872;28;20041;-66
2023/05/19 07:55:39;;;;;;;3.97;1.73;;;23.00;58.20;;;;;;5074555;28;20032;-66
2023/05/19 07:58:05;;;;;;;5.05;1.50;;;24.10;55.30;;;;;;5075067;28;20484;-66
2023/05/19 08:00:31;;;;;;;5.68;1.73;;;24.00;53.20;;;;;;5088778;28;20036;-67
2023/05/19 08:02:56;;;;;;;2.92;0.95;;;24.30;53.30;;;;;;5074523;28;20052;-67
2023/05/19 08:05:24;;;;;;;8.35;1.65;;;24.40;53.20;;;;;;5074201;28;20511;-68
2023/05/19 08:07:50;;;;;;;3.75;1.42;;;25.80;52.50;;;;;;5075400;28;20052;-68
2023/05/19 08:10:15;;;;;;;4.68;1.50;;;26.60;50.70;;;;;;5075458;28;20062;-69
2023/05/19 08:12:42;;;;;;;4.05;1.67;;;26.40;50.40;;;;;;5073515;28;20087;-69
2023/05/19 08:15:10;;;;;;;4.93;1.27;;;25.70;50.30;;;;;;5075317;28;20047;-67
2023/05/19 08:17:36;;;;;;;11.30;2.15;;;26.00;49.70;;;;;;5074648;28;20055;-68
2023/05/19 08:20:05;;;;;;;5.43;1.42;;;25.80;46.90;;;;;;5075589;28;20622;-67
2023/05/19 08:22:31;;;;;;;3.95;1.27;;;26.40;47.30;;;;;;5074198;28;20151;-66
2023/05/19 08:24:57;;;;;;;3.92;1.40;;;26.50;48.70;;;;;;5094299;28;20836;-66
2023/05/19 08:27:22;;;;;;;5.18;1.50;;;26.70;47.40;;;;;;5076257;28;20043;-66
2023/05/19 08:29:48;;;;;;;8.60;1.65;;;26.90;45.80;;;;;;5075692;28;20048;-67
2023/05/19 08:32:14;;;;;;;6.80;1.77;;;26.10;45.20;;;;;;5075929;28;20051;-70
2023/05/19 08:34:40;;;;;;;5.78;1.85;;;26.30;45.20;;;;;;5076688;28;20058;-69
2023/05/19 08:37:06;;;;;;;3.72;1.02;;;25.70;46.00;;;;;;5074223;28;20040;-68
2023/05/19 08:39:33;;;;;;;6.68;1.35;;;25.80;46.40;;;;;;5072078;28;20028;-67
2023/05/19 08:42:01;;;;;;;8.18;1.70;;;25.50;46.50;;;;;;5074198;28;20052;-66
2023/05/19 08:44:27;;;;;;;6.88;1.63;;;25.20;47.40;;;;;;5072904;28;20047;-65
2023/05/19 08:46:57;;;;;;;6.80;1.63;;;24.90;47.50;;;;;;5074319;28;20047;-67
2023/05/19 08:49:27;;;;;;;7.72;2.00;;;24.10;48.50;;;;;;5074162;28;20731;-67
2023/05/19 08:52:15;;;;;;;6.70;1.60;;;22.20;51.30;;;;;;5074468;28;20139;-66
2023/05/19 08:55:08;;;;;;;5.53;1.95;;;20.70;54.30;;;;;;5072900;28;20080;-65
2023/05/19 08:57:36;;;;;;;3.05;1.50;;;19.90;57.60;;;;;;5071990;28;20051;-65
2023/05/19 09:00:12;;;;;;;5.68;1.42;;;19.10;59.10;;;;;;5072472;28;20182;-65
2023/05/19 09:02:41;;;;;;;20.75;2.40;;;18.60;61.70;;;;;;5084447;28;20074;-65
2023/05/19 09:05:07;;;;;;;2.97;1.55;;;18.10;65.20;;;;;;5081395;28;20040;-65
2023/05/19 09:07:36;;;;;;;9.68;1.45;;;17.40;61.30;;;;;;5072068;28;20044;-65
2023/05/19 09:10:02;;;;;;;7.88;1.77;;;17.20;63.40;;;;;;5071911;28;20047;-64
2023/05/19 09:12:28;;;;;;;6.47;1.85;;;17.20;62.80;;;;;;5070796;28;20044;-65
2023/05/19 09:14:54;;;;;;;;;;;17.20;65.80;;;;;;5072393;28;20054;-65
2023/05/19 09:17:20;;;;;;;5.63;1.75;;;17.50;67.40;;;;;;5071621;28;20362;-64
2023/05/19 09:19:48;;;;;;;;;;;17.60;68.00;;;;;;5070466;28;20090;-66
2023/05/19 09:22:15;;;;;;;7.68;2.22;;;17.70;65.60;;;;;;5068554;28;19951;-67
2023/05/19 09:24:41;;;;;;;9.80;1.88;;;17.70;64.10;;;;;;5072106;28;20051;-66
2023/05/19 09:27:07;;;;;;;4.70;1.58;;;17.00;64.80;;;;;;5072650;28;20089;-66
2023/05/19 09:29:33;;;;;;;6.07;2.05;;;16.70;64.20;;;;;;5073279;28;20412;-66
2023/05/19 09:32:04;;;;;;;;;;;16.50;68.40;;;;;;5071577;28;20044;-66
2023/05/19 09:34:30;;;;;;;7.57;2.10;;;16.40;66.70;;;;;;5072867;28;19924;-64
2023/05/19 09:36:58;;;;;;;;;;;16.50;69.40;;;;;;5073087;28;20404;-66
2023/05/19 09:39:24;;;;;;;3.83;2.00;;;16.40;65.40;;;;;;5075193;28;19923;-66
2023/05/19 09:41:57;;;;;;;8.57;1.98;;;16.30;66.30;;;;;;5072333;28;20040;-65
2023/05/19 09:44:28;;;;;;;5.00;2.10;;;16.50;67.30;;;;;;5073966;28;20040;-65
2023/05/19 09:46:54;;;;;;;3.92;1.67;;;16.20;66.50;;;;;;5072549;28;20859;-65
2023/05/19 09:49:20;;;;;;;8.40;2.55;;;16.10;67.80;;;;;;5072034;28;20071;-65
2023/05/19 09:51:58;;;;;;;4.97;2.30;;;15.90;69.50;;;;;;5069314;28;20105;-65
2023/05/19 09:54:30;;;;;;;8.18;2.17;;;15.80;70.90;;;;;;5073243;28;20024;-65
2023/05/19 09:57:02;;;;;;;8.13;2.10;;;15.70;67.90;;;;;;5068828;28;20049;-65
2023/05/19 09:59:30;;;;;;;7.05;2.25;;;15.80;71.30;;;;;;5067658;28;20054;-66
2023/05/19 10:01:57;;;;;;;7.32;2.22;;;15.80;70.50;;;;;;5067173;28;20053;-66
2023/05/19 10:04:28;;;;;;;7.20;2.40;;;16.00;74.50;;;;;;5068069;28;20051;-66
2023/05/19 10:06:58;;;;;;;9.48;1.95;;;15.80;71.60;;;;;;5067271;28;20702;-65
2023/05/19 10:09:26;;;;;;;6.03;1.80;;;15.90;73.40;;;;;;5067821;28;20045;-65
2023/05/19 10:11:53;;;;;;;7.95;2.40;;;16.10;73.10;;;;;;5068175;28;20094;-66
2023/05/19 10:14:25;;;;;;;7.78;2.50;;;16.20;72.60;;;;;;5068783;28;20036;-66
2023/05/19 10:16:57;;;;;;;3.58;2.00;;;15.90;72.10;;;;;;5070978;28;20620;-66
2023/05/19 10:19:25;;;;;;;5.75;2.03;;;15.90;71.40;;;;;;5067039;28;20782;-66
2023/05/19 10:21:51;;;;;;;6.68;2.08;;;16.30;74.70;;;;;;5066228;28;20282;-65
2023/05/19 10:24:20;;;;;;;4.00;1.80;;;16.50;70.50;;;;;;5066735;28;20182;-65
2023/05/19 10:27:08;;;;;;;9.93;2.20;;;16.40;77.10;;;;;;5070877;28;20051;-65
2023/05/19 10:29:39;;;;;;;7.07;2.45;;;16.40;72.10;;;;;;5071793;28;20055;-66
2023/05/19 10:32:10;;;;;;;8.75;2.60;;;16.20;73.50;;;;;;5071217;28;21296;-66
2023/05/19 10:35:08;;;;;;;15.35;2.53;;;16.10;73.60;;;;;;5070790;28;20048;-68
2023/05/19 10:37:38;;;;;;;6.43;2.13;;;16.20;69.00;;;;;;5074111;28;20537;-69
2023/05/19 10:40:12;;;;;;;3.75;2.00;;;16.40;69.80;;;;;;5073953;28;20055;-67
2023/05/19 10:42:52;;;;;;;14.95;2.72;;;16.40;74.70;;;;;;5070184;28;20055;-67
2023/05/19 10:45:22;;;;;;;6.05;2.42;;;16.20;72.60;;;;;;5071492;28;20044;-69
2023/05/19 10:47:50;;;;;;;7.63;2.50;;;16.10;71.90;;;;;;5072392;28;20137;-67
2023/05/19 10:50:16;;;;;;;10.63;2.53;;;16.30;71.70;;;;;;5070263;28;20094;-66
2023/05/19 10:52:43;;;;;;;;;;;16.50;72.60;;;;;;5071215;28;20093;-66
2023/05/19 10:55:16;;;;;;;4.55;2.40;;;16.40;69.90;;;;;;5071368;28;19930;-67
2023/05/19 10:57:57;;;;;;;3.78;1.60;;;16.60;69.10;;;;;;5074389;28;20060;-66
2023/05/19 11:00:27;;;;;;;7.32;2.15;;;16.80;69.40;;;;;;5068994;28;20426;-66
2023/05/19 11:02:56;;;;;;;6.70;2.67;;;17.10;71.10;;;;;;5074136;28;20407;-66
2023/05/19 11:05:28;;;;;;;4.93;2.28;;;16.60;73.90;;;;;;5070133;28;20101;-65
2023/05/19 11:07:56;;;;;;;8.65;2.85;;;16.30;75.10;;;;;;5070709;28;20044;-67
2023/05/19 11:10:24;;;;;;;11.75;4.10;;;15.90;74.10;;;;;;5071998;28;20404;-66
2023/05/19 11:12:51;;;;;;;5.55;2.10;;;16.00;75.20;;;;;;5070002;28;20101;-66
2023/05/19 11:15:16;;;;;;;9.05;1.80;;;15.90;75.60;;;;;;5071173;28;20423;-66
2023/05/19 11:17:44;;;;;;;;;;;15.90;72.70;;;;;;5071517;28;20070;-67
2023/05/19 11:20:22;;;;;;;4.93;2.10;;;16.00;73.50;;;;;;5070739;28;19924;-67
2023/05/19 11:23:08;;;;;;;3.90;2.00;;;15.70;73.30;;;;;;5070281;28;20040;-66
2023/05/19 11:25:52;;;;;;;4.32;1.63;;;15.90;74.00;;;;;;5069459;28;20048;-67
2023/05/19 11:28:24;;;;;;;5.68;2.08;;;16.10;74.40;;;;;;5070529;28;20048;-65
2023/05/19 11:30:53;;;;;;;10.60;2.20;;;16.40;72.10;;;;;;5068325;28;20044;-65
2023/05/19 11:33:20;;;;;;;6.93;2.42;;;16.70;72.10;;;;;;5069663;28;20051;-65
2023/05/19 11:35:50;;;;;;;4.97;1.88;;;16.80;74.30;;;;;;5085996;28;20527;-65
2023/05/19 11:38:17;;;;;;;7.50;2.42;;;17.10;68.40;;;;;;5070965;28;20040;-66
2023/05/19 11:40:43;;;;;;;5.95;2.45;;;16.80;70.60;;;;;;5069642;28;20040;-66
2023/05/19 11:43:09;;;;;;;;;;;16.40;73.30;;;;;;5071109;28;20047;-65
2023/05/19 11:45:35;;;;;;;5.05;2.13;;;16.50;73.60;;;;;;5071065;28;20617;-66
2023/05/19 11:48:04;;;;;;;;;;;16.20;72.90;;;;;;5085011;28;20056;-65
2023/05/19 11:50:31;;;;;;;6.82;2.22;;;16.00;76.00;;;;;;5070124;28;20456;-65
2023/05/19 11:52:59;;;;;;;4.40;1.90;;;16.10;73.20;;;;;;5070115;28;20067;-67
2023/05/19 11:55:24;;;;;;;4.07;2.28;;;16.10;72.90;;;;;;5070728;28;20052;-67
2023/05/19 11:57:57;;;;;;;;;;;16.10;72.50;;;;;;5068735;28;20414;-66
2023/05/19 12:00:23;;;;;;;7.93;2.28;;;16.20;74.00;;;;;;5067792;28;20002;-68
2023/05/19 12:02:49;;;;;;;6.05;2.65;;;16.50;73.90;;;;;;5070892;28;20050;-68
2023/05/19 12:05:21;;;;;;;;;;;16.50;71.60;;;;;;5071701;28;20436;-66
2023/05/19 12:07:51;;;;;;;5.38;2.30;;;16.50;74.30;;;;;;5070692;28;19950;-67
2023/05/19 12:10:24;;;;;;;6.15;2.05;;;16.50;73.40;;;;;;5070628;28;20121;-67
2023/05/19 12:12:50;;;;;;;6.10;2.25;;;16.40;77.60;;;;;;5068911;28;20143;-65
2023/05/19 12:15:22;;;;;;;;;;;16.20;72.50;;;;;;5074589;28;20066;-66
2023/05/19 12:17:50;;;;;;;3.55;1.80;;;15.90;71.90;;;;;;5073945;28;19928;-66
2023/05/19 12:20:18;;;;;;;4.07;1.80;;;15.90;78.10;;;;;;5073995;28;20125;-66
2023/05/19 12:22:44;;;;;;;5.18;1.70;;;16.10;74.80;;;;;;5073708;28;20139;-65
2023/05/19 12:25:10;;;;;;;5.43;1.92;;;16.00;74.70;;;;;;5077875;28;20874;-66
2023/05/19 12:27:36;;;;;;;;;;;16.20;73.50;;;;;;5074396;28;20255;-67
2023/05/19 12:30:03;;;;;;;10.13;2.10;;;16.10;70.80;;;;;;5075429;28;19959;-66
2023/05/19 12:32:32;;;;;;;7.78;1.80;;;16.30;70.60;;;;;;5070566;28;20860;-65
2023/05/19 12:34:59;;;;;;;4.25;1.92;;;16.50;71.90;;;;;;5074101;28;20044;-66
2023/05/19 12:37:32;;;;;;;3.10;1.60;;;16.50;67.70;;;;;;5073449;28;20415;-67
2023/05/19 12:39:58;;;;;;;5.47;1.70;;;16.80;69.80;;;;;;5078314;28;20043;-65
2023/05/19 12:42:33;;;;;;;5.97;1.80;;;16.50;72.20;;;;;;5089738;28;20084;-67
2023/05/19 12:45:01;;;;;;;3.97;1.75;;;16.30;70.60;;;;;;5075083;28;20052;-65
2023/05/19 12:47:34;;;;;;;5.03;1.90;;;16.10;72.50;;;;;;5075783;28;20036;-66
2023/05/19 12:50:02;;;;;;;5.47;1.55;;;16.30;75.40;;;;;;5077457;28;20071;-65
2023/05/19 12:52:29;;;;;;;4.68;1.70;;;16.60;78.70;;;;;;5076586;28;20071;-66
2023/05/19 12:55:00;;;;;;;3.83;1.80;;;16.60;71.10;;;;;;5076474;28;20044;-67
2023/05/19 12:57:28;;;;;;;4.78;1.63;;;16.50;72.60;;;;;;5079832;28;20531;-66
2023/05/19 12:59:59;;;;;;;7.35;1.85;;;16.20;72.10;;;;;;5079060;28;20035;-67